Time;durP1;ratioP1;P1;durP2;ratioP2;P2;SDS_P1;SDS_P2;PMS_P1;PMS_P2;Temp;Humidity;BMP_temperature;BMP_pressure;BME280_temperature;BME280_humidity;BME280_pressure;Samples;Min_cycle;Max_cycle;Signal;HPM_P1;HPM_P2
2022/10/26 00:02:17;;;;;;;;;;;9.40;99.90;;;;;;6308396;22;20216;-63
2022/10/26 00:04:44;;;;;;;;;;;9.40;99.90;;;;;;6304387;22;19927;-63
2022/10/26 00:07:10;;;;;;;;;;;9.40;99.90;;;;;;6308035;22;19999;-62
2022/10/26 00:09:36;;;;;;;;;;;9.40;99.90;;;;;;6308535;22;19919;-62
2022/10/26 00:12:05;;;;;;;;;;;9.30;99.90;;;;;;6307952;22;20336;-62
2022/10/26 00:14:30;;;;;;;;;;;9.40;99.90;;;;;;6308034;22;19919;-62
2022/10/26 00:16:57;;;;;;;;;;;8.60;99.90;;;;;;6280743;22;19971;-62
2022/10/26 00:19:23;;;;;;;;;;;9.40;99.90;;;;;;6281191;22;20290;-63
2022/10/26 00:21:48;;;;;;;;;;;9.40;99.90;;;;;;6308346;22;19930;-62
2022/10/26 00:24:14;;;;;;;;;;;9.40;99.90;;;;;;6308402;22;20315;-63
2022/10/26 00:26:41;;;;;;;;;;;9.30;99.90;;;;;;6277997;22;19914;-62
2022/10/26 00:29:07;;;;;;;;;;;9.30;99.90;;;;;;6308367;22;20235;-62
2022/10/26 00:31:33;;;;;;;;;;;9.30;99.90;;;;;;6308306;22;19922;-62
2022/10/26 00:34:00;;;;;;;;;;;9.30;99.90;;;;;;6280663;22;19919;-62
2022/10/26 00:36:25;;;;;;;;;;;9.20;99.90;;;;;;6308320;22;19915;-62
2022/10/26 00:38:54;;;;;;;;;;;9.20;99.90;;;;;;6307941;22;19922;-62
2022/10/26 00:41:30;;;;;;;;;;;9.20;99.90;;;;;;6306746;22;19926;-62
2022/10/26 00:43:58;;;;;;;;;;;9.20;99.90;;;;;;6308231;22;19915;-62
2022/10/26 00:46:27;;;;;;;;;;;9.10;99.90;;;;;;6307848;22;19922;-62
2022/10/26 00:48:55;;;;;;;;;;;9.20;99.90;;;;;;6280590;22;19975;-62
2022/10/26 00:51:32;;;;;;;;;;;9.20;99.90;;;;;;6308220;22;19993;-62
2022/10/26 00:54:01;;;;;;;;;;;9.10;99.90;;;;;;6308195;22;19994;-62
2022/10/26 00:56:27;;;;;;;;;;;9.10;99.90;;;;;;6308137;22;20008;-62
2022/10/26 00:58:53;;;;;;;;;;;9.00;99.90;;;;;;6307793;22;19915;-62
2022/10/26 01:01:19;;;;;;;;;;;9.00;99.90;;;;;;6308167;22;20331;-62
2022/10/26 01:03:45;;;;;;;;;;;9.00;99.90;;;;;;6307762;22;19915;-63
2022/10/26 01:06:11;;;;;;;;;;;9.00;99.90;;;;;;6307003;22;19986;-62
2022/10/26 01:08:37;;;;;;;;;;;9.00;99.90;;;;;;6280537;22;19957;-62
2022/10/26 01:11:12;;;;;;;;;;;9.00;99.90;;;;;;6308279;22;19915;-62
2022/10/26 01:13:38;;;;;;;;;;;9.00;99.90;;;;;;6307980;22;20354;-63
2022/10/26 01:16:11;;;;;;;;;;;8.90;99.90;;;;;;6281297;22;19919;-63
2022/10/26 01:18:45;;;;;;;;;;;8.90;99.90;;;;;;6309652;22;19914;-62
2022/10/26 01:21:29;;;;;;;;;;;8.90;99.90;;;;;;6310067;22;19914;-62
2022/10/26 01:23:56;;;;;;;;;;;8.90;99.90;;;;;;6282290;22;19954;-63
2022/10/26 01:26:41;;;;;;;;;;;8.90;99.90;;;;;;6310084;22;19915;-63
2022/10/26 01:29:28;;;;;;;;;;;8.90;99.90;;;;;;6308961;22;20377;-62
2022/10/26 01:31:57;;;;;;;;;;;8.90;99.90;;;;;;6309995;22;19918;-63
2022/10/26 01:34:33;;;;;;;;;;;8.90;99.90;;;;;;6309602;22;19915;-63
2022/10/26 01:37:05;;;;;;;;;;;8.90;99.90;;;;;;6309968;22;20217;-62
2022/10/26 01:39:38;;;;;;;;;;;9.00;99.90;;;;;;6307154;22;20228;-63
2022/10/26 01:42:04;;;;;;;;;;;8.90;99.90;;;;;;6309715;22;20212;-62
2022/10/26 01:44:33;;;;;;;;;;;9.00;99.90;;;;;;6309881;22;19961;-62
2022/10/26 01:47:00;;;;;;;;;;;9.00;99.90;;;;;;6309195;22;19918;-62
2022/10/26 01:49:27;;;;;;;;;;;9.00;99.90;;;;;;6309811;22;19986;-62
2022/10/26 01:51:55;;;;;;;;;;;9.00;99.90;;;;;;6309726;22;19918;-62
2022/10/26 01:54:20;;;;;;;;;;;9.00;99.90;;;;;;6309354;22;20324;-73
2022/10/26 01:56:54;;;;;;;;;;;9.00;99.90;;;;;;6309699;22;19946;-73
2022/10/26 01:59:38;;;;;;;;;;;9.00;99.90;;;;;;6309748;22;19919;-73
2022/10/26 02:02:28;;;;;;;;;;;9.00;99.90;;;;;;6307888;22;19919;-73
2022/10/26 02:05:06;;;;;;;;;;;9.00;99.90;;;;;;6309721;22;19915;-73
2022/10/26 02:07:50;;;;;;;;;;;9.00;99.90;;;;;;6309220;22;20421;-73
2022/10/26 02:10:22;;;;;;;;;;;9.00;99.90;;;;;;6281810;22;19954;-73
2022/10/26 02:13:07;;;;;;;;;;;9.00;99.90;;;;;;6309610;22;19915;-73
2022/10/26 02:15:46;;;;;;;;;;;9.10;99.90;;;;;;6309588;22;20040;-74
2022/10/26 02:18:14;;;;;;;;;;;9.00;99.90;;;;;;6309163;22;19915;-73
2022/10/26 02:20:44;;;;;;;;;;;9.10;99.90;;;;;;6309726;22;19922;-74
2022/10/26 02:23:10;;;;;;;;;;;9.10;99.90;;;;;;6308910;22;19919;-74
2022/10/26 02:25:40;;;;;;;;;;;9.00;99.90;;;;;;6309079;22;20320;-74
2022/10/26 02:28:07;;;;;;;;;;;9.10;99.90;;;;;;6308700;22;19921;-74
2022/10/26 02:30:34;;;;;;;;;;;9.00;99.90;;;;;;6281777;22;19922;-74
2022/10/26 02:33:00;;;;;;;;;;;9.10;99.90;;;;;;6309364;22;19922;-74
2022/10/26 02:35:30;;;;;;;;;;;9.10;99.90;;;;;;6309311;22;19984;-73
2022/10/26 02:37:58;;;;;;;;;;;9.10;99.90;;;;;;6309305;22;19915;-73
2022/10/26 02:40:26;;;;;;;;;;;9.20;99.90;;;;;;6308881;22;19922;-73
2022/10/26 02:42:53;;;;;;;;;;;9.00;99.90;;;;;;6281456;22;19926;-73
2022/10/26 02:45:24;;;;;;;;;;;9.00;99.90;;;;;;6281446;22;19919;-74
2022/10/26 02:47:51;;;;;;;;;;;9.10;99.90;;;;;;6309140;22;19922;-73
2022/10/26 02:50:19;;;;;;;;;;;9.00;99.90;;;;;;6309076;22;19948;-74
2022/10/26 02:53:13;;;;;;;;;;;9.10;99.90;;;;;;6308778;22;19914;-74
2022/10/26 02:55:42;;;;;;;;;;;9.20;99.90;;;;;;6281563;22;19938;-73
2022/10/26 02:58:11;;;;;;;;;;;9.10;99.90;;;;;;6308663;22;19915;-73
2022/10/26 03:00:38;;;;;;;;;;;9.10;99.90;;;;;;6308724;22;19915;-74
2022/10/26 03:03:04;;;;;;;;;;;9.40;99.90;;;;;;6308646;22;19918;-74
2022/10/26 03:05:35;;;;;;;;;;;9.10;99.90;;;;;;6309007;22;19994;-74
2022/10/26 03:08:01;;;;;;;;;;;9.20;99.90;;;;;;6308770;22;19965;-73
2022/10/26 03:10:31;;;;;;;;;;;9.20;99.90;;;;;;6309042;22;19922;-73
2022/10/26 03:12:57;;;;;;;;;;;9.10;99.90;;;;;;6281325;22;19919;-74
2022/10/26 03:15:25;;;;;;;;;;;9.20;99.90;;;;;;6308302;22;19919;-73
2022/10/26 03:17:51;;;;;;;;;;;9.30;99.90;;;;;;6281200;22;20395;-74
2022/10/26 03:20:17;;;;;;;;;;;9.10;99.90;;;;;;6281266;22;19921;-75
2022/10/26 03:22:45;;;;;;;;;;;9.20;99.90;;;;;;6308037;22;20247;-74
2022/10/26 03:25:11;;;;;;;;;;;9.40;99.90;;;;;;6309029;22;19922;-74
2022/10/26 03:27:41;;;;;;;;;;;9.20;99.90;;;;;;6308768;22;19915;-74
2022/10/26 03:30:07;;;;;;;;;;;9.30;99.90;;;;;;6308804;22;19915;-75
2022/10/26 03:32:33;;;;;;;;;;;9.20;99.90;;;;;;6281098;22;19915;-74
2022/10/26 03:34:59;;;;;;;;;;;9.30;99.90;;;;;;6281228;22;19919;-73
2022/10/26 03:37:24;;;;;;;;;;;9.30;99.90;;;;;;6281138;22;19915;-73
2022/10/26 03:39:50;;;;;;;;;;;9.40;99.90;;;;;;6307937;22;19942;-75
2022/10/26 03:42:19;;;;;;;;;;;9.30;99.90;;;;;;6308171;22;19919;-75
2022/10/26 03:44:46;;;;;;;;;;;9.40;99.90;;;;;;6308717;22;19922;-74
2022/10/26 03:47:11;;;;;;;;;;;9.40;99.90;;;;;;6308651;22;19914;-74
2022/10/26 03:49:38;;;;;;;;;;;9.30;99.90;;;;;;6304823;22;19990;-75
2022/10/26 03:52:04;;;;;;;;;;;9.40;99.90;;;;;;6280954;22;19915;-74
2022/10/26 03:54:30;;;;;;;;;;;9.30;99.90;;;;;;6281341;22;19915;-74
2022/10/26 03:56:55;;;;;;;;;;;9.30;99.90;;;;;;6308466;22;19915;-74
2022/10/26 03:59:21;;;;;;;;;;;9.40;99.90;;;;;;6308327;22;19914;-75
2022/10/26 04:01:46;;;;;;;;;;;9.40;99.90;;;;;;6280748;22;19919;-74
2022/10/26 04:04:12;;;;;;;;;;;9.40;99.90;;;;;;6308573;22;19914;-75
2022/10/26 04:06:41;;;;;;;;;;;9.40;99.90;;;;;;6303762;22;19937;-74
2022/10/26 04:09:07;;;;;;;;;;;9.40;99.90;;;;;;6280930;22;19915;-75
2022/10/26 04:11:36;;;;;;;;;;;9.30;99.90;;;;;;6308456;22;20285;-74
2022/10/26 04:14:05;;;;;;;;;;;9.50;99.90;;;;;;6307369;22;19926;-73
2022/10/26 04:16:34;;;;;;;;;;;9.40;99.90;;;;;;6308304;22;20253;-74
2022/10/26 04:19:00;;;;;;;;;;;9.40;99.90;;;;;;6308251;22;19946;-74
2022/10/26 04:21:25;;;;;;;;;;;9.50;99.90;;;;;;6307743;22;19915;-74
2022/10/26 04:23:51;;;;;;;;;;;9.40;99.90;;;;;;6280456;22;19915;-74
2022/10/26 04:26:17;;;;;;;;;;;9.50;99.90;;;;;;6307635;22;19958;-74
2022/10/26 04:28:43;;;;;;;;;;;9.40;99.90;;;;;;6307733;22;19921;-73
2022/10/26 04:31:10;;;;;;;;;;;9.50;99.90;;;;;;6280341;22;19919;-73
2022/10/26 04:33:36;;;;;;;;;;;9.40;99.90;;;;;;6308304;22;19923;-73
2022/10/26 04:36:01;;;;;;;;;;;9.40;99.90;;;;;;6308290;22;19919;-73
2022/10/26 04:38:27;;;;;;;;;;;9.40;99.90;;;;;;6307680;22;19996;-74
2022/10/26 04:40:53;;;;;;;;;;;9.50;99.90;;;;;;6308195;22;20004;-73
2022/10/26 04:43:22;;;;;;;;;;;9.50;99.90;;;;;;6308115;22;19965;-73
2022/10/26 04:45:48;;;;;;;;;;;9.50;99.90;;;;;;6308186;22;19919;-74
2022/10/26 04:48:15;;;;;;;;;;;9.50;99.90;;;;;;6307744;22;19915;-73
2022/10/26 04:50:40;;;;;;;;;;;9.50;99.90;;;;;;6308678;22;19936;-73
2022/10/26 04:53:07;;;;;;;;;;;9.50;99.90;;;;;;6309787;22;19986;-73
2022/10/26 04:55:33;;;;;;;;;;;9.60;99.90;;;;;;6309878;22;19921;-73
2022/10/26 04:58:00;;;;;;;;;;;9.60;99.90;;;;;;6310307;22;19954;-74
2022/10/26 05:00:25;;;;;;;;;;;9.60;99.90;;;;;;6310338;22;19961;-73
2022/10/26 05:02:51;;;;;;;;;;;9.60;99.90;;;;;;6310204;22;19923;-73
2022/10/26 05:05:17;;;;;;;;;;;9.70;99.90;;;;;;6307173;22;20032;-73
2022/10/26 05:07:43;;;;;;;;;;;9.70;99.90;;;;;;6305474;22;19919;-73
2022/10/26 05:10:08;;;;;;;;;;;9.70;99.90;;;;;;6309082;22;19942;-72
2022/10/26 05:12:34;;;;;;;;;;;9.70;99.90;;;;;;6307307;22;19922;-73
2022/10/26 05:15:00;;;;;;;;;;;9.70;99.90;;;;;;6308114;22;19919;-73
2022/10/26 05:17:27;;;;;;;;;;;9.80;99.90;;;;;;6280096;22;19915;-73
2022/10/26 05:19:59;;;;;;;;;;;9.80;99.90;;;;;;6308350;22;19914;-74
2022/10/26 05:22:24;;;;;;;;;;;9.80;99.90;;;;;;6307038;22;19926;-73
2022/10/26 05:24:50;;;;;;;;;;;9.80;99.90;;;;;;6308619;22;19915;-73
2022/10/26 05:27:17;;;;;;;;;;;9.80;99.90;;;;;;6308258;22;19915;-73
2022/10/26 05:29:43;;;;;;;;;;;9.80;99.90;;;;;;6307585;22;19915;-73
2022/10/26 05:32:08;;;;;;;;;;;9.90;99.90;;;;;;6308599;22;19968;-72
2022/10/26 05:34:37;;;;;;;;;;;9.90;99.90;;;;;;6309502;22;20343;-73
2022/10/26 05:37:03;;;;;;;;;;;9.90;99.90;;;;;;6307586;22;19922;-73
2022/10/26 05:39:29;;;;;;;;;;;9.90;99.90;;;;;;6306137;22;20381;-73
2022/10/26 05:41:55;;;;;;;;;;;9.90;99.90;;;;;;6305570;22;19919;-73
2022/10/26 05:44:21;;;;;;;;;;;10.00;99.90;;;;;;6277437;22;20045;-73
2022/10/26 05:46:46;;;;;;;;;;;9.90;99.90;;;;;;6305894;22;19922;-73
2022/10/26 05:49:12;;;;;;;;;;;10.00;99.90;;;;;;6306904;22;19965;-72
2022/10/26 05:51:38;;;;;;;;;;;10.00;99.90;;;;;;6274553;22;20398;-71
2022/10/26 05:54:04;;;;;;;;;;;10.00;99.90;;;;;;6309746;22;19919;-72
2022/10/26 05:56:39;;;;;;;;;;;10.00;99.90;;;;;;6309138;22;19924;-74
2022/10/26 05:59:14;;;;;;;;;;;10.00;99.90;;;;;;6278364;22;20327;-73
2022/10/26 06:01:39;;;;;;;;;;;10.00;99.90;;;;;;6279109;22;19919;-73
2022/10/26 06:04:09;;;;;;;;;;;10.10;99.90;;;;;;6307394;22;19915;-73
2022/10/26 06:06:41;;;;;;;;;;;10.20;99.90;;;;;;6308807;22;19919;-73
2022/10/26 06:09:10;;;;;;;;;;;10.10;99.90;;;;;;6304589;22;19922;-72
2022/10/26 06:11:35;;;;;;;;;;;10.20;99.90;;;;;;6308307;22;19915;-73
2022/10/26 06:14:02;;;;;;;;;;;10.10;99.90;;;;;;6307453;22;19994;-73
2022/10/26 06:16:44;;;;;;;;;;;9.20;99.90;;;;;;6252890;22;19976;-73
2022/10/26 06:19:09;;;;;;;;;;;10.20;99.90;;;;;;6308273;22;19964;-73
2022/10/26 06:21:44;;;;;;;;;;;10.20;99.90;;;;;;6308176;22;19919;-74
2022/10/26 06:24:41;;;;;;;;;;;10.20;99.90;;;;;;6308625;22;20235;-74
2022/10/26 06:27:10;;;;;;;;;;;10.20;99.90;;;;;;6223668;22;19919;-74
2022/10/26 06:29:42;;;;;;;;;;;10.30;99.90;;;;;;6280745;22;19959;-74
2022/10/26 06:32:12;;;;;;;;;;;10.20;99.90;;;;;;6307458;22;19929;-73
2022/10/26 06:34:47;;;;;;;;;;;10.40;99.90;;;;;;6308514;22;20384;-72
2022/10/26 06:37:13;;;;;;;;;;;10.30;99.90;;;;;;6308478;22;19915;-73
2022/10/26 06:39:42;;;;;;;;;;;10.30;99.90;;;;;;6308054;22;19919;-73
2022/10/26 06:42:09;;;;;;;;;;;10.30;99.90;;;;;;6280660;22;19923;-72
2022/10/26 06:44:34;;;;;;;;;;;10.40;99.90;;;;;;6308006;22;19964;-73
2022/10/26 06:47:03;;;;;;;;;;;10.40;99.90;;;;;;6308402;22;19915;-73
2022/10/26 06:49:54;;;;;;;;;;;10.70;99.90;;;;;;6308539;22;19925;-73
2022/10/26 06:52:36;;;;;;;;;;;10.40;99.90;;;;;;6304713;22;20335;-73
2022/10/26 06:55:07;;;;;;;;;;;10.40;99.90;;;;;;6306997;22;19921;-73
2022/10/26 06:57:37;;;;;;;;;;;10.40;99.90;;;;;;6305485;22;19922;-74
2022/10/26 07:00:15;;;;;;;;;;;10.40;99.90;;;;;;6307792;22;19965;-74
2022/10/26 07:02:41;;;;;;;;;;;10.40;99.90;;;;;;6305791;22;20366;-74
2022/10/26 07:05:11;;;;;;;;;;;10.50;99.90;;;;;;6307408;22;19915;-74
2022/10/26 07:07:45;;;;;;;;;;;10.50;99.90;;;;;;6280545;22;20387;-74
2022/10/26 07:10:12;;;;;;;;;;;10.50;99.90;;;;;;6307689;22;20387;-73
2022/10/26 07:12:38;;;;;;;;;;;10.50;99.90;;;;;;6308158;22;19985;-74
2022/10/26 07:15:12;;;;;;;;;;;10.70;99.90;;;;;;6307747;22;19977;-74
2022/10/26 07:17:44;;;;;;;;;;;10.60;99.90;;;;;;6308085;22;19965;-74
2022/10/26 07:20:11;;;;;;;;;;;10.70;99.90;;;;;;6280581;22;19915;-74
2022/10/26 07:22:38;;;;;;;;;;;10.80;99.90;;;;;;6307848;22;19997;-73
2022/10/26 07:25:06;;;;;;;;;;;10.80;99.90;;;;;;6308127;22;19990;-74
2022/10/26 07:27:34;;;;;;;;;;;10.90;99.90;;;;;;6304513;22;19914;-74
2022/10/26 07:30:00;;;;;;;;;;;10.80;99.90;;;;;;6306018;22;19922;-73
2022/10/26 07:32:26;;;;;;;;;;;10.90;99.90;;;;;;6280848;22;19915;-72
2022/10/26 07:34:51;;;;;;;;;;;11.00;99.90;;;;;;6307072;22;19922;-73
2022/10/26 07:37:18;;;;;;;;;;;11.00;99.90;;;;;;6307822;22;19922;-73
2022/10/26 07:39:44;;;;;;;;;;;11.10;99.90;;;;;;6308331;22;19915;-72
2022/10/26 07:42:09;;;;;;;;;;;11.20;99.90;;;;;;6306014;22;19926;-73
2022/10/26 07:44:48;;;;;;;;;;;11.20;99.90;;;;;;6306044;22;19922;-73
2022/10/26 07:47:13;;;;;;;;;;;11.40;99.90;;;;;;6307622;22;19915;-74
2022/10/26 07:49:40;;;;;;;;;;;11.40;99.90;;;;;;6307444;22;19915;-74
2022/10/26 07:52:05;;;;;;;;;;;11.40;99.90;;;;;;6306154;22;19922;-74
2022/10/26 07:54:31;;;;;;;;;;;11.50;99.90;;;;;;6306371;22;20093;-73
2022/10/26 07:56:58;;;;;;;;;;;11.50;99.90;;;;;;6306863;22;19915;-75
2022/10/26 07:59:24;;;;;;;;;;;11.60;99.90;;;;;;6307668;22;19972;-74
2022/10/26 08:01:51;;;;;;;;;;;11.60;99.90;;;;;;6307666;22;19919;-75
2022/10/26 08:04:17;;;;;;;;;;;11.60;99.90;;;;;;6280098;22;19999;-73
2022/10/26 08:06:47;;;;;;;;;;;11.50;99.90;;;;;;6307581;22;19923;-74
2022/10/26 08:09:13;;;;;;;;;;;11.60;99.90;;;;;;6304023;22;19918;-73
2022/10/26 08:11:48;;;;;;;;;;;11.70;99.90;;;;;;6307769;22;19954;-74
2022/10/26 08:14:17;;;;;;;;;;;11.70;99.90;;;;;;6307237;22;19926;-73
2022/10/26 08:16:51;;;;;;;;;;;15.10;99.90;;;;;;6307467;22;19915;-74
2022/10/26 08:19:20;;;;;;;;;;;11.90;99.90;;;;;;6307344;22;19915;-74
2022/10/26 08:21:45;;;;;;;;;;;12.00;99.90;;;;;;6305378;22;19929;-63
2022/10/26 08:24:15;;;;;;;;;;;12.00;99.90;;;;;;6306708;22;20328;-63
2022/10/26 08:26:40;;;;;;;;;;;12.10;99.90;;;;;;6307027;22;19946;-62
2022/10/26 08:29:06;;;;;;;;;;;12.10;99.90;;;;;;6305648;22;19915;-63
2022/10/26 08:31:34;;;;;;;;;;;12.10;99.90;;;;;;6307016;22;19923;-62
2022/10/26 08:34:00;;;;;;;;;;;12.20;99.90;;;;;;6307012;22;19942;-63
2022/10/26 08:36:29;;;;;;;;;;;12.30;99.90;;;;;;6279243;22;19923;-62
2022/10/26 08:38:55;;;;;;;;;;;12.40;99.90;;;;;;6307398;22;19926;-63
2022/10/26 08:41:32;;;;;;;;;;;12.60;99.90;;;;;;6306251;22;19937;-62
2022/10/26 08:44:00;;;;;;;;;;;12.90;99.90;;;;;;6307309;22;20326;-62
2022/10/26 08:46:29;;;;;;;;;;;13.90;99.90;;;;;;6306288;22;19976;-63
2022/10/26 08:48:58;;;;;;;;;;;15.20;99.90;;;;;;6307554;22;19915;-62
2022/10/26 08:51:36;;;;;;;;;;;16.00;99.90;;;;;;6306980;22;19954;-62
2022/10/26 08:54:21;;;;;;;;;;;16.10;99.90;;;;;;6279528;22;19919;-63
2022/10/26 08:56:48;;;;;;;;;;;15.80;99.90;;;;;;6307182;22;19918;-62
2022/10/26 08:59:37;;;;;;;;;;;15.50;99.90;;;;;;6307485;22;19923;-73
2022/10/26 09:02:12;;;;;;;;;;;15.60;99.90;;;;;;6307011;22;19926;-73
2022/10/26 09:04:37;;;;;;;;;;;16.00;99.90;;;;;;6279648;22;19914;-73
2022/10/26 09:07:18;;;;;;;;;;;16.20;99.90;;;;;;6307406;22;19992;-73
2022/10/26 09:10:00;;;;;;;;;;;16.20;99.90;;;;;;6305703;22;19963;-72
2022/10/26 09:12:28;;;;;;;;;;;16.30;99.90;;;;;;6306037;22;19915;-72
2022/10/26 09:15:02;;;;;;;;;;;16.30;99.90;;;;;;6305586;22;20015;-72
2022/10/26 09:17:28;;;;;;;;;;;16.30;99.90;;;;;;6307102;22;19915;-72
2022/10/26 09:20:17;;;;;;;;;;;16.40;99.90;;;;;;6306881;22;19957;-72
2022/10/26 09:22:50;;;;;;;;;;;16.40;99.90;;;;;;6304854;22;20217;-73
2022/10/26 09:25:18;;;;;;;;;;;16.50;99.90;;;;;;6306853;22;19915;-72
2022/10/26 09:28:01;;;;;;;;;;;16.50;99.90;;;;;;6307431;22;19998;-71
2022/10/26 09:30:34;;;;;;;;;;;16.50;99.90;;;;;;6306427;22;20249;-73
2022/10/26 09:33:02;;;;;;;;;;;16.50;99.90;;;;;;6307395;22;19918;-71
2022/10/26 09:35:48;;;;;;;;;;;16.50;99.90;;;;;;6306793;22;19968;-72
2022/10/26 09:38:23;;;;;;;;;;;16.60;99.90;;;;;;6306693;22;20284;-71
2022/10/26 09:40:56;;;;;;;;;;;16.60;99.90;;;;;;6306403;22;20366;-71
2022/10/26 09:43:38;;;;;;;;;;;16.70;99.90;;;;;;6306830;22;19923;-71
2022/10/26 09:46:12;;;;;;;;;;;16.80;99.90;;;;;;6307817;22;19922;-71
2022/10/26 09:48:42;;;;;;;;;;;16.80;99.90;;;;;;6308603;22;20243;-64
2022/10/26 09:51:10;;;;;;;;;;;16.80;99.90;;;;;;6308897;22;19915;-63
2022/10/26 09:53:39;;;;;;;;;;;16.80;99.90;;;;;;6309128;22;19923;-63
2022/10/26 09:56:06;;;;;;;;;;;16.80;99.90;;;;;;6308870;22;19965;-62
2022/10/26 09:58:37;;;;;;;;;;;16.80;99.90;;;;;;6308912;22;19985;-62
2022/10/26 10:01:03;;;;;;;;;;;16.90;99.90;;;;;;6308783;22;19919;-63
2022/10/26 10:03:30;;;;;;;;;;;16.90;99.90;;;;;;6308821;22;20017;-62
2022/10/26 10:06:14;;;;;;;;;;;17.00;99.90;;;;;;6308668;22;19919;-62
2022/10/26 10:08:40;;;;;;;;;;;17.10;99.90;;;;;;6308825;22;20205;-62
2022/10/26 10:11:13;;;;;;;;;;;17.30;99.90;;;;;;6308889;22;19915;-63
2022/10/26 10:13:43;;;;;;;;;;;17.50;99.90;;;;;;6308909;22;19991;-63
2022/10/26 10:16:28;;;;;;;;;;;17.60;99.90;;;;;;6246714;23;19938;-63
2022/10/26 10:18:55;;;;;;;;;;;17.80;99.90;;;;;;6246849;22;19915;-63
2022/10/26 10:21:32;;;;;;;;;;;17.90;99.90;;;;;;6245602;22;19922;-72
2022/10/26 10:23:58;;;;;;;;;;;18.00;99.90;;;;;;6244874;22;20280;-72
2022/10/26 10:26:23;;;;;;;;;;;18.00;99.90;;;;;;6247093;22;19969;-72
2022/10/26 10:28:57;;;;;;;;;;;18.00;99.90;;;;;;6246536;22;19915;-72
2022/10/26 10:31:32;;;;;;;;;;;18.10;99.90;;;;;;6246501;22;20324;-71
2022/10/26 10:33:58;;;;;;;;;;;18.10;99.90;;;;;;6246957;22;19916;-71
2022/10/26 10:36:25;;;;;;;;;;;18.20;99.90;;;;;;6247094;22;19916;-72
2022/10/26 10:38:55;;;;;;;;;;;18.20;99.90;;;;;;6246407;22;19966;-72
2022/10/26 10:41:24;;;;;;;;;;;18.30;99.90;;;;;;6245535;22;20277;-72
2022/10/26 10:44:02;;;;;;;;;;;18.40;99.90;;;;;;6246659;22;19931;-71
2022/10/26 10:46:29;;;;;;;;;;;18.40;99.90;;;;;;6246548;23;19962;-71
2022/10/26 10:49:02;;;;;;;;;;;18.50;99.90;;;;;;6246190;22;19922;-71
2022/10/26 10:51:30;;;;;;;;;;;18.50;99.90;;;;;;6246863;22;20004;-72
2022/10/26 10:53:55;;;;;;;;;;;18.40;99.90;;;;;;6246229;22;19915;-72
2022/10/26 10:56:27;;;;;;;;;;;18.50;99.90;;;;;;6246638;22;19916;-72
2022/10/26 10:58:52;;;;;;;;;;;18.50;99.90;;;;;;6246754;22;19919;-72
2022/10/26 11:01:20;;;;;;;;;;;18.60;99.90;;;;;;6243700;23;20345;-72
2022/10/26 11:03:59;;;;;;;;;;;18.60;99.90;;;;;;6244600;22;20292;-71
2022/10/26 11:06:27;;;;;;;;;;;18.60;99.90;;;;;;6245987;22;19915;-72
2022/10/26 11:09:02;;;;;;;;;;;18.70;99.90;;;;;;6245382;22;19922;-71
2022/10/26 11:11:34;;;;;;;;;;;18.70;99.90;;;;;;6244972;22;19920;-72
2022/10/26 11:14:02;;;;;;;;;;;18.70;99.90;;;;;;6245010;22;19927;-72
2022/10/26 11:16:35;;;;;;;;;;;18.70;99.90;;;;;;6245761;22;20016;-72
2022/10/26 11:19:15;;;;;;;;;;;18.70;99.90;;;;;;6246064;22;20329;-72
2022/10/26 11:21:43;;;;;;;;;;;18.80;99.90;;;;;;6246711;22;20292;-72
2022/10/26 11:24:30;;;;;;;;;;;18.90;99.90;;;;;;6244176;22;19924;-71
2022/10/26 11:27:01;;;;;;;;;;;19.00;99.90;;;;;;6245049;22;20288;-72
2022/10/26 11:29:45;;;;;;;;;;;19.00;99.90;;;;;;6243461;22;19925;-72
2022/10/26 11:32:27;;;;;;;;;;;19.00;99.90;;;;;;6244836;22;19920;-71
2022/10/26 11:34:53;;;;;;;;;;;19.00;99.90;;;;;;6245044;22;19959;-71
2022/10/26 11:37:31;;;;;;;;;;;19.00;99.90;;;;;;6244907;22;19919;-72
2022/10/26 11:40:15;;;;;;;;;;;19.10;99.90;;;;;;6246264;22;19923;-72
2022/10/26 11:43:04;;;;;;;;;;;19.20;99.90;;;;;;6246098;22;20217;-71
2022/10/26 11:45:33;;;;;;;;;;;19.30;99.90;;;;;;6246355;22;19919;-72
2022/10/26 11:48:31;;;;;;;;;;;19.40;99.90;;;;;;6244875;22;19916;-71
2022/10/26 11:50:58;;;;;;;;;;;19.40;99.90;;;;;;6237387;23;20321;-72
2022/10/26 11:53:27;;;;;;;;;;;19.50;99.90;;;;;;6246289;22;19915;-72
2022/10/26 11:55:54;;;;;;;;;;;19.50;99.90;;;;;;6245948;22;20010;-73
2022/10/26 11:58:24;;;;;;;;;;;19.50;99.90;;;;;;6244260;23;20317;-72
2022/10/26 12:00:56;;;;;;;;;;;19.50;99.90;;;;;;6243800;22;19915;-72
2022/10/26 12:03:25;;;;;;;;;;;19.50;99.90;;;;;;6246050;22;19920;-73
2022/10/26 12:05:51;;;;;;;;;;;19.40;99.90;;;;;;6245657;22;20225;-72
2022/10/26 12:08:17;;;;;;;;;;;19.40;99.90;;;;;;6245718;22;19923;-72
2022/10/26 12:10:54;;;;;;;;;;;19.40;99.90;;;;;;6244139;22;20336;-71
2022/10/26 12:13:33;;;;;;;;;;;19.50;99.90;;;;;;6245014;22;19924;-72
2022/10/26 12:16:04;;;;;;;;;;;19.60;99.90;;;;;;6294620;22;19929;-71
2022/10/26 12:18:40;;;;;;;;;;;19.70;99.90;;;;;;6279387;22;19965;-72
2022/10/26 12:21:09;;;;;;;;;;;19.80;99.90;;;;;;6306086;22;20242;-72
2022/10/26 12:23:51;;;;;;;;;;;19.80;99.90;;;;;;6307397;22;19997;-74
2022/10/26 12:26:23;;;;;;;;;;;19.80;99.90;;;;;;6307808;22;19914;-72
2022/10/26 12:29:08;;;;;;;;;;;19.70;99.90;;;;;;6307639;22;19915;-72
2022/10/26 12:31:34;;;;;;;;;;;19.70;99.90;;;;;;6228621;22;20327;-72
2022/10/26 12:34:00;;;;;;;;;;;19.60;99.90;;;;;;6307840;22;19922;-72
2022/10/26 12:36:47;;;;;;;;;;;19.60;99.90;;;;;;6307338;22;20349;-71
2022/10/26 12:39:33;;;;;;;;;;;19.60;99.90;;;;;;6307134;22;19938;-71
2022/10/26 12:42:04;;;;;;;;;;;19.70;99.90;;;;;;6306189;22;19950;-64
2022/10/26 12:44:41;;;;;;;;;;;19.80;99.90;;;;;;6303313;22;20251;-64
2022/10/26 12:47:09;;;;;;;;;;;19.80;99.90;;;;;;6279192;22;19964;-64
2022/10/26 12:49:54;;;;;;;;;;;19.90;99.90;;;;;;6306685;22;20283;-64
2022/10/26 12:52:20;;;;;;;;;;;19.90;99.90;;;;;;6305182;22;20336;-64
2022/10/26 12:55:08;;;;;;;;;;;20.00;99.90;;;;;;6279441;22;19915;-64
2022/10/26 12:57:38;;;;;;;;;;;19.90;99.90;;;;;;6307524;22;19915;-64
2022/10/26 13:00:06;;;;;;;;;;;20.00;99.90;;;;;;6279739;22;19972;-64
2022/10/26 13:02:47;;;;;;;;;;;20.00;99.90;;;;;;6307366;22;19961;-64
2022/10/26 13:05:18;;;;;;;;;;;20.10;99.90;;;;;;6307104;22;19915;-64
2022/10/26 13:07:44;;;;;;;;;;;20.10;99.90;;;;;;6306914;22;19914;-64
2022/10/26 13:10:10;;;;;;;;;;;20.10;99.90;;;;;;6307434;22;19919;-64
2022/10/26 13:12:38;;;;;;;;;;;20.10;99.90;;;;;;6308793;22;19922;-64
2022/10/26 13:15:19;;;;;;;;;;;20.10;99.90;;;;;;6281495;22;19941;-64
2022/10/26 13:18:09;;;;;;;;;;;20.10;99.90;;;;;;6256252;22;19915;-64
2022/10/26 13:20:54;;;;;;;;;;;20.00;99.90;;;;;;6309110;22;19918;-64
2022/10/26 13:23:28;;;;;;;;;;;20.00;99.90;;;;;;6308659;22;20274;-64
2022/10/26 13:26:16;;;;;;;;;;;19.90;99.90;;;;;;6309278;22;19983;-64
2022/10/26 13:28:47;;;;;;;;;;;19.80;99.90;;;;;;6288202;22;20248;-64
2022/10/26 13:31:13;;;;;;;;;;;19.70;99.90;;;;;;6307967;22;19964;-64
2022/10/26 13:33:40;;;;;;;;;;;19.70;99.90;;;;;;6309143;22;19997;-64
2022/10/26 13:36:28;;;;;;;;;;;19.70;99.90;;;;;;6309050;22;19915;-64
2022/10/26 13:38:53;;;;;;;;;;;19.60;99.90;;;;;;6307245;22;19915;-64
2022/10/26 13:41:45;;;;;;;;;;;19.60;99.90;;;;;;6308812;22;19919;-64
2022/10/26 13:44:24;;;;;;;;;;;19.50;99.90;;;;;;6304521;22;20240;-64
2022/10/26 13:46:53;;;;;;;;;;;19.50;99.90;;;;;;6307764;22;19926;-64
2022/10/26 13:49:25;;;;;;;;;;;19.40;99.90;;;;;;6254414;22;20240;-64
2022/10/26 13:51:59;;;;;;;;;;;19.50;99.90;;;;;;6307665;22;19918;-64
2022/10/26 13:54:34;;;;;;;;;;;19.50;99.90;;;;;;6307459;22;19915;-64
2022/10/26 13:57:18;;;;;;;;;;;19.50;99.90;;;;;;6308607;22;19919;-64
2022/10/26 13:59:45;;;;;;;;;;;19.50;99.90;;;;;;6308330;22;19918;-64
2022/10/26 14:02:22;;;;;;;;;;;19.50;99.90;;;;;;6281482;22;19919;-63
2022/10/26 14:04:52;;;;;;;;;;;19.50;99.90;;;;;;6309670;22;19915;-64
2022/10/26 14:07:24;;;;;;;;;;;19.40;99.90;;;;;;6307077;22;19915;-71
2022/10/26 14:09:51;;;;;;;;;;;19.40;99.90;;;;;;6281569;22;19915;-72
2022/10/26 14:12:17;;;;;;;;;;;19.40;99.90;;;;;;6308482;22;20377;-73
2022/10/26 14:14:43;;;;;;;;;;;19.50;99.90;;;;;;6308446;22;19919;-72
2022/10/26 14:17:22;;;;;;;;;;;19.60;99.90;;;;;;6308760;22;19937;-71
2022/10/26 14:19:51;;;;;;;;;;;19.70;99.90;;;;;;6308807;22;19919;-72
2022/10/26 14:22:21;;;;;;;;;;;19.70;99.90;;;;;;6308856;22;19919;-72
2022/10/26 14:24:53;;;;;;;;;;;19.60;99.90;;;;;;6307882;22;19919;-72
2022/10/26 14:27:31;;;;;;;;;;;19.50;99.90;;;;;;6308515;22;20346;-72
2022/10/26 14:29:58;;;;;;;;;;;19.50;99.90;;;;;;6307273;22;19919;-72
2022/10/26 14:32:43;;;;;;;;;;;19.30;99.90;;;;;;6308607;22;20044;-72
2022/10/26 14:35:12;;;;;;;;;;;19.30;99.90;;;;;;6308763;22;19969;-71
2022/10/26 14:37:41;;;;;;;;;;;19.20;99.90;;;;;;6308441;22;20335;-64
2022/10/26 14:40:13;;;;;;;;;;;19.10;99.90;;;;;;6308264;22;19915;-64
2022/10/26 14:42:40;;;;;;;;;;;19.10;99.90;;;;;;6280855;22;19923;-64